Flight Track Log - Related Links

Times and Time Zones

All times are in EDT time to prevent confusion due to time zone crossing. See the SKW5396 flight status page for this flight to view local times or setup timezone preferences in your user account.

Time Position Orientation Groundspeed Altitude Reporting Facility
EDT Latitude Longitude Course Direction KTS MPH feet Rate Location/Type
Wed 02:20:24 PM 47.4417 -122.3100 180° South 129 148 1,200  Level Seattle Center
Wed 02:20:40 PM 47.4339 -122.3100 180° South 127 146 1,600 1,535 Climbing Seattle Center
Wed 02:21:07 PM 47.4128 -122.3097 179° South 147 169 2,300 1,574 Climbing Seattle Center
Wed 02:21:41 PM 47.3881 -122.3089 179° South 168 193 3,200 1,768 Climbing Seattle Center
Wed 02:22:42 PM 47.3317 -122.3117 182° South 186 214 5,100 1,770 Climbing Seattle Center
Wed 02:23:43 PM 47.2797 -122.3117 180° South 187 215 6,800 1,659 Climbing Seattle Center
Wed 02:24:00 PM 47.1075 -122.3657 180° South  Level Estimated
Wed 02:24:45 PM 47.2231 -122.3097 179° South 199 229 8,500  Level Seattle Center
Wed 02:25:00 PM 47.0219 -122.3791 180° South  Level Estimated
Wed 02:25:46 PM 47.1661 -122.3125 182° South 205 236 10,000  Level Seattle Center
Wed 02:26:47 PM 47.1044 -122.3108 179° South 206 237 12,000 1,820 Climbing Seattle Center
Wed 02:27:48 PM 47.0456 -122.3097 179° South 210 242 13,700 1,426 Climbing Seattle Center
Wed 02:28:49 PM 46.9861 -122.3103 180° South 214 246 14,900 590 Climbing Seattle Center
Wed 02:29:50 PM 46.9222 -122.3117 181° South 228 262 14,900  Level Seattle Center
Wed 02:30:51 PM 46.8561 -122.3175 183° South 221 254 14,900  Level Seattle Center
Wed 02:31:52 PM 46.7964 -122.3256 185° South 216 249 14,900  Level Seattle Center
Wed 02:32:54 PM 46.7378 -122.3308 184° South 212 244 14,900  Level Seattle Center
Wed 02:33:55 PM 46.6786 -122.3389 185° South 214 246 14,900  Level Seattle Center
Wed 02:34:56 PM 46.6172 -122.3447 184° South 225 259 14,900  Level Seattle Center
Wed 02:35:57 PM 46.5525 -122.3525 185° South 236 272 14,900  Level Seattle Center
Wed 02:36:58 PM 46.4875 -122.3592 184° South 239 275 14,900 68 Level Seattle Center
Wed 02:37:25 PM 46.4489 -122.3650 186° South 240 276 15,000 98 Climbing Seattle Center
Wed 02:37:59 PM 46.4208 -122.3650 180° South 241 277 15,000  Level Seattle Center
Wed 02:38:38 PM 46.3664 -122.3744 187° South 243 280 15,000  Level Seattle Center
Wed 02:39:01 PM 46.3539 -122.3719 172° South 243 280 15,000  Level Seattle Center
Wed 02:39:33 PM 46.3050 -122.3814 188° South 243 280 15,000  Level Seattle Center
Wed 02:40:02 PM 46.2744 -122.3817 180° South 241 277 15,000 -400 Level Seattle Center
Wed 02:40:33 PM 46.2375 -122.3908 190° South 241 277 14,600 -1,377 Descending Seattle Center
Wed 02:41:03 PM 46.2089 -122.3894 178° South 236 272 13,600 -2,418 Descending Seattle Center
Wed 02:41:40 PM 46.1667 -122.3956 186° South 242 278 11,900 -2,459 Descending Seattle Center
Wed 02:42:04 PM 46.1450 -122.3978 184° South 243 280 11,100 -1,869 Descending Seattle Center
Wed 02:42:41 PM 46.0947 -122.4036 185° South 256 295 10,000 -1,377 Descending Seattle Center
Wed 02:43:05 PM 46.0747 -122.4061 185° South 250 288 9,700 -1,200 Descending Seattle Center
Wed 02:43:36 PM 46.0378 -122.4336 207° Southwest 239 275 8,900 -1,279 Descending Seattle Center
Wed 02:44:06 PM 46.0144 -122.4478 203° Southwest 234 269 8,400 -1,377 Descending Seattle Center
Wed 02:44:37 PM 45.9736 -122.4694 200° South 233 268 7,500 -1,258 Descending Seattle Center
Wed 02:45:08 PM 45.9556 -122.4814 205° Southwest 229 264 7,100 -913 Descending Seattle Center
Wed 02:46:09 PM 45.8972 -122.5136 201° Southwest 225 259 6,100 -733 Descending Seattle Center
Wed 02:46:38 PM 45.8578 -122.5297 196° South 217 250 6,000 -98 Descending Seattle Center
Wed 02:47:10 PM 45.8314 -122.5122 155° Southeast 227 261 6,000  Level Seattle Center
Wed 02:47:39 PM 45.8067 -122.4919 150° Southeast 201 231 6,000  Level Seattle Center
Wed 02:48:11 PM 45.7858 -122.4683 142° Southeast 206 237 6,000  Level Seattle Center
Wed 02:48:40 PM 45.7592 -122.4494 154° Southeast 206 237 6,000  Level Seattle Center
Wed 02:49:12 PM 45.7342 -122.4339 157° South 204 235 6,000 -400 Level Seattle Center
Wed 02:49:40 PM 45.7067 -122.4156 155° Southeast 209 241 5,600 -984 Descending Seattle Center
Wed 02:50:13 PM 45.6803 -122.3989 156° South 208 239 5,000 -1,082 Descending Seattle Center
Wed 02:50:41 PM 45.6522 -122.3822 157° South 215 247 4,500 -984 Descending Seattle Center
Wed 02:51:14 PM 45.6256 -122.3639 154° Southeast 214 246 4,000 -982 Descending Seattle Center
Wed 02:51:36 PM 45.6025 -122.3503 158° South 204 235 3,600 -885 Descending Seattle Center
Wed 02:52:15 PM 45.5758 -122.3311 153° Southeast 205 236 3,100 -537 Descending Seattle Center
Wed 02:52:43 PM 45.5475 -122.3144 158° South 186 214 3,000 -98 Descending Seattle Center
Wed 02:53:16 PM 45.5275 -122.3164 184° South 201 231 3,000  Level Seattle Center
Wed 02:53:44 PM 45.5019 -122.3364 209° Southwest 178 205 3,000  Level Seattle Center
Wed 02:54:18 PM 45.5047 -122.3656 278° West 179 206 3,000 -200 Level Seattle Center
Wed 02:54:44 PM 45.5189 -122.3972 303° West 186 214 2,800 -689 Descending Seattle Center
Wed 02:55:19 PM 45.5289 -122.4261 296° West 175 201 2,300 -885 Descending Seattle Center
Wed 02:55:45 PM 45.5394 -122.4567 296° West 158 182 1,900 -923 Descending Seattle Center

Login

Don't have an account? Register now (free) for customized features, flight alerts, and more!